Terminal Aerodrome Forecast
Issued by NWS

Home | Current Version | Previous Version | Text Only | Print | Product List | Glossary Off
Versions: 1 2 3 4 5 6 7 8 9 10 11 12 13 14

000
FTUS43 KMPX 222333
TAFAXN
TAF
KAXN 222333Z 2300/2324 31010KT P6SM SCT035 BKN060
     FM230300 33008KT P6SM VCSH BKN025 OVC050
     FM230900 35008KT 6SM -RA BR SCT008 OVC012
     FM231800 36012G20KT P6SM BKN015 OVC025=

USA.gov is the U.S. government's official web portal to all federal, state and local government web resources and services.